sensor_id;sensor_type;location;lat;lon;timestamp;temperature;humidity
9881;DHT22;4979;51.014;6.678;2023-09-08T00:02:25;20.80;99.90
9881;DHT22;4979;51.014;6.678;2023-09-08T00:04:51;20.90;99.90
9881;DHT22;4979;51.014;6.678;2023-09-08T00:07:16;20.80;99.90
9881;DHT22;4979;51.014;6.678;2023-09-08T00:09:42;20.80;99.90
9881;DHT22;4979;51.014;6.678;2023-09-08T00:12:08;20.80;99.90
9881;DHT22;4979;51.014;6.678;2023-09-08T00:16:59;20.70;99.90
9881;DHT22;4979;51.014;6.678;2023-09-08T00:19:25;20.60;99.90
9881;DHT22;4979;51.014;6.678;2023-09-08T00:21:50;20.60;99.90
9881;DHT22;4979;51.014;6.678;2023-09-08T00:24:16;20.70;99.90
9881;DHT22;4979;51.014;6.678;2023-09-08T00:26:43;20.70;99.90
9881;DHT22;4979;51.014;6.678;2023-09-08T00:29:08;20.60;99.90
9881;DHT22;4979;51.014;6.678;2023-09-08T00:31:34;20.60;99.90
9881;DHT22;4979;51.014;6.678;2023-09-08T00:33:59;20.60;99.90
9881;DHT22;4979;51.014;6.678;2023-09-08T00:36:25;20.60;99.90
9881;DHT22;4979;51.014;6.678;2023-09-08T00:38:51;20.60;99.90
9881;DHT22;4979;51.014;6.678;2023-09-08T00:41:16;20.60;99.90
9881;DHT22;4979;51.014;6.678;2023-09-08T00:43:42;20.70;99.90
9881;DHT22;4979;51.014;6.678;2023-09-08T00:46:08;20.70;99.90
9881;DHT22;4979;51.014;6.678;2023-09-08T00:48:34;20.70;99.90
9881;DHT22;4979;51.014;6.678;2023-09-08T00:51:00;20.60;99.90
9881;DHT22;4979;51.014;6.678;2023-09-08T00:53:26;20.60;99.90
9881;DHT22;4979;51.014;6.678;2023-09-08T00:55:52;20.60;99.90
9881;DHT22;4979;51.014;6.678;2023-09-08T00:58:18;20.50;99.90
9881;DHT22;4979;51.014;6.678;2023-09-08T01:00:43;20.50;99.90
9881;DHT22;4979;51.014;6.678;2023-09-08T01:03:11;20.50;99.90
9881;DHT22;4979;51.014;6.678;2023-09-08T01:05:37;20.50;99.90
9881;DHT22;4979;51.014;6.678;2023-09-08T01:08:03;20.50;99.90
9881;DHT22;4979;51.014;6.678;2023-09-08T01:10:29;20.50;99.90
9881;DHT22;4979;51.014;6.678;2023-09-08T01:12:55;20.50;99.90
9881;DHT22;4979;51.014;6.678;2023-09-08T01:15:20;20.50;99.90
9881;DHT22;4979;51.014;6.678;2023-09-08T01:17:46;20.50;99.90
9881;DHT22;4979;51.014;6.678;2023-09-08T01:20:18;20.50;99.90
9881;DHT22;4979;51.014;6.678;2023-09-08T01:25:32;20.50;99.90
9881;DHT22;4979;51.014;6.678;2023-09-08T01:28:02;20.40;99.90
9881;DHT22;4979;51.014;6.678;2023-09-08T01:30:30;20.50;99.90
9881;DHT22;4979;51.014;6.678;2023-09-08T01:32:58;20.40;99.90
9881;DHT22;4979;51.014;6.678;2023-09-08T01:35:24;20.40;99.90
9881;DHT22;4979;51.014;6.678;2023-09-08T01:37:50;20.40;99.90
9881;DHT22;4979;51.014;6.678;2023-09-08T01:40:16;20.40;99.90
9881;DHT22;4979;51.014;6.678;2023-09-08T01:42:42;20.40;99.90
9881;DHT22;4979;51.014;6.678;2023-09-08T01:45:08;20.30;99.90
9881;DHT22;4979;51.014;6.678;2023-09-08T01:47:34;20.30;99.90
9881;DHT22;4979;51.014;6.678;2023-09-08T01:50:00;20.30;99.90
9881;DHT22;4979;51.014;6.678;2023-09-08T01:54:52;20.20;99.90
9881;DHT22;4979;51.014;6.678;2023-09-08T01:57:18;20.20;99.90
9881;DHT22;4979;51.014;6.678;2023-09-08T01:59:43;20.20;99.90
9881;DHT22;4979;51.014;6.678;2023-09-08T02:02:10;20.20;99.90
9881;DHT22;4979;51.014;6.678;2023-09-08T02:04:36;20.20;99.90
9881;DHT22;4979;51.014;6.678;2023-09-08T02:07:02;20.20;99.90
9881;DHT22;4979;51.014;6.678;2023-09-08T02:09:36;20.10;99.90
9881;DHT22;4979;51.014;6.678;2023-09-08T02:14:29;20.10;99.90
9881;DHT22;4979;51.014;6.678;2023-09-08T02:16:55;20.10;99.90
9881;DHT22;4979;51.014;6.678;2023-09-08T02:21:47;19.90;99.90
9881;DHT22;4979;51.014;6.678;2023-09-08T02:24:13;19.90;99.90
9881;DHT22;4979;51.014;6.678;2023-09-08T02:26:39;19.90;99.90
9881;DHT22;4979;51.014;6.678;2023-09-08T02:29:05;19.90;99.90
9881;DHT22;4979;51.014;6.678;2023-09-08T02:31:31;20.00;99.90
9881;DHT22;4979;51.014;6.678;2023-09-08T02:36:23;19.90;99.90
9881;DHT22;4979;51.014;6.678;2023-09-08T02:41:17;19.90;99.90
9881;DHT22;4979;51.014;6.678;2023-09-08T02:43:43;19.80;99.90
9881;DHT22;4979;51.014;6.678;2023-09-08T02:46:09;19.80;99.90
9881;DHT22;4979;51.014;6.678;2023-09-08T02:48:35;19.80;99.90
9881;DHT22;4979;51.014;6.678;2023-09-08T02:51:01;19.80;99.90
9881;DHT22;4979;51.014;6.678;2023-09-08T02:53:26;19.80;99.90
9881;DHT22;4979;51.014;6.678;2023-09-08T02:55:54;19.70;99.90
9881;DHT22;4979;51.014;6.678;2023-09-08T02:58:20;19.70;99.90
9881;DHT22;4979;51.014;6.678;2023-09-08T03:00:45;19.70;99.90
9881;DHT22;4979;51.014;6.678;2023-09-08T03:03:11;19.70;99.90
9881;DHT22;4979;51.014;6.678;2023-09-08T03:05:37;19.70;99.90
9881;DHT22;4979;51.014;6.678;2023-09-08T03:08:02;19.70;99.90
9881;DHT22;4979;51.014;6.678;2023-09-08T03:10:28;19.60;99.90
9881;DHT22;4979;51.014;6.678;2023-09-08T03:12:54;19.60;99.90
9881;DHT22;4979;51.014;6.678;2023-09-08T03:15:20;19.60;99.90
9881;DHT22;4979;51.014;6.678;2023-09-08T03:17:46;19.60;99.90
9881;DHT22;4979;51.014;6.678;2023-09-08T03:20:11;19.50;99.90
9881;DHT22;4979;51.014;6.678;2023-09-08T03:22:38;19.50;99.90
9881;DHT22;4979;51.014;6.678;2023-09-08T03:25:04;19.50;99.90
9881;DHT22;4979;51.014;6.678;2023-09-08T03:27:30;19.50;99.90
9881;DHT22;4979;51.014;6.678;2023-09-08T03:29:55;19.50;99.90
9881;DHT22;4979;51.014;6.678;2023-09-08T03:34:47;19.40;99.90
9881;DHT22;4979;51.014;6.678;2023-09-08T03:37:12;19.40;99.90
9881;DHT22;4979;51.014;6.678;2023-09-08T03:39:38;19.30;99.90
9881;DHT22;4979;51.014;6.678;2023-09-08T03:44:29;19.20;99.90
9881;DHT22;4979;51.014;6.678;2023-09-08T03:46:55;19.20;99.90
9881;DHT22;4979;51.014;6.678;2023-09-08T03:51:46;19.20;99.90
9881;DHT22;4979;51.014;6.678;2023-09-08T03:54:12;19.20;99.90
9881;DHT22;4979;51.014;6.678;2023-09-08T03:56:37;19.20;99.90
9881;DHT22;4979;51.014;6.678;2023-09-08T04:01:29;19.20;99.90
9881;DHT22;4979;51.014;6.678;2023-09-08T04:03:54;19.20;99.90
9881;DHT22;4979;51.014;6.678;2023-09-08T04:06:20;19.20;99.90
9881;DHT22;4979;51.014;6.678;2023-09-08T04:08:46;19.20;99.90
9881;DHT22;4979;51.014;6.678;2023-09-08T04:11:11;19.20;99.90
9881;DHT22;4979;51.014;6.678;2023-09-08T04:13:37;19.20;99.90
9881;DHT22;4979;51.014;6.678;2023-09-08T04:16:02;19.10;99.90
9881;DHT22;4979;51.014;6.678;2023-09-08T04:18:28;19.10;99.90
9881;DHT22;4979;51.014;6.678;2023-09-08T04:20:53;19.10;99.90
9881;DHT22;4979;51.014;6.678;2023-09-08T04:23:19;19.10;99.90
9881;DHT22;4979;51.014;6.678;2023-09-08T04:25:45;19.10;99.90
9881;DHT22;4979;51.014;6.678;2023-09-08T04:28:11;19.10;99.90
9881;DHT22;4979;51.014;6.678;2023-09-08T04:30:36;19.00;99.90
9881;DHT22;4979;51.014;6.678;2023-09-08T04:33:02;19.00;99.90
9881;DHT22;4979;51.014;6.678;2023-09-08T04:35:28;19.00;99.90
9881;DHT22;4979;51.014;6.678;2023-09-08T04:37:53;19.00;99.90
9881;DHT22;4979;51.014;6.678;2023-09-08T04:40:19;19.00;99.90
9881;DHT22;4979;51.014;6.678;2023-09-08T04:42:44;19.00;99.90
9881;DHT22;4979;51.014;6.678;2023-09-08T04:45:10;19.00;99.90
9881;DHT22;4979;51.014;6.678;2023-09-08T04:47:36;19.00;99.90
9881;DHT22;4979;51.014;6.678;2023-09-08T04:50:02;19.00;99.90
9881;DHT22;4979;51.014;6.678;2023-09-08T04:52:29;19.00;99.90
9881;DHT22;4979;51.014;6.678;2023-09-08T04:57:20;18.90;99.90
9881;DHT22;4979;51.014;6.678;2023-09-08T04:59:46;18.90;99.90
9881;DHT22;4979;51.014;6.678;2023-09-08T05:02:11;18.90;99.90
9881;DHT22;4979;51.014;6.678;2023-09-08T05:04:37;18.80;99.90
9881;DHT22;4979;51.014;6.678;2023-09-08T05:07:02;18.80;99.90
9881;DHT22;4979;51.014;6.678;2023-09-08T05:11:54;18.80;99.90
9881;DHT22;4979;51.014;6.678;2023-09-08T05:14:19;18.80;99.90
9881;DHT22;4979;51.014;6.678;2023-09-08T05:16:45;18.90;99.90
9881;DHT22;4979;51.014;6.678;2023-09-08T05:19:12;18.70;99.90
9881;DHT22;4979;51.014;6.678;2023-09-08T05:21:42;18.80;99.90
9881;DHT22;4979;51.014;6.678;2023-09-08T05:24:09;18.80;99.90
9881;DHT22;4979;51.014;6.678;2023-09-08T05:26:36;18.80;99.90
9881;DHT22;4979;51.014;6.678;2023-09-08T05:29:02;18.80;99.90
9881;DHT22;4979;51.014;6.678;2023-09-08T05:31:28;18.80;99.90
9881;DHT22;4979;51.014;6.678;2023-09-08T05:36:19;18.80;99.90
9881;DHT22;4979;51.014;6.678;2023-09-08T05:38:45;18.80;99.90
9881;DHT22;4979;51.014;6.678;2023-09-08T05:41:10;18.70;99.90
9881;DHT22;4979;51.014;6.678;2023-09-08T05:43:36;18.80;99.90
9881;DHT22;4979;51.014;6.678;2023-09-08T05:46:01;18.80;99.90
9881;DHT22;4979;51.014;6.678;2023-09-08T05:48:27;18.90;99.90
9881;DHT22;4979;51.014;6.678;2023-09-08T05:50:53;18.90;99.90
9881;DHT22;4979;51.014;6.678;2023-09-08T05:53:18;19.00;99.90
9881;DHT22;4979;51.014;6.678;2023-09-08T05:55:44;19.00;99.90
9881;DHT22;4979;51.014;6.678;2023-09-08T05:58:09;19.10;99.90
9881;DHT22;4979;51.014;6.678;2023-09-08T06:00:36;19.00;99.90
9881;DHT22;4979;51.014;6.678;2023-09-08T06:05:28;19.10;99.90
9881;DHT22;4979;51.014;6.678;2023-09-08T06:07:53;19.20;99.90
9881;DHT22;4979;51.014;6.678;2023-09-08T06:10:19;19.30;99.90
9881;DHT22;4979;51.014;6.678;2023-09-08T06:12:44;19.30;99.90
9881;DHT22;4979;51.014;6.678;2023-09-08T06:15:10;19.30;99.90
9881;DHT22;4979;51.014;6.678;2023-09-08T06:17:35;19.40;99.90
9881;DHT22;4979;51.014;6.678;2023-09-08T06:20:01;19.50;99.90
9881;DHT22;4979;51.014;6.678;2023-09-08T06:22:27;19.50;99.90
9881;DHT22;4979;51.014;6.678;2023-09-08T06:24:53;19.60;99.90
9881;DHT22;4979;51.014;6.678;2023-09-08T06:27:18;19.60;99.90
9881;DHT22;4979;51.014;6.678;2023-09-08T06:29:44;19.60;99.90
9881;DHT22;4979;51.014;6.678;2023-09-08T06:32:10;19.90;99.90
9881;DHT22;4979;51.014;6.678;2023-09-08T06:34:36;20.00;99.90
9881;DHT22;4979;51.014;6.678;2023-09-08T06:37:02;20.00;99.90
9881;DHT22;4979;51.014;6.678;2023-09-08T06:39:27;20.00;99.90
9881;DHT22;4979;51.014;6.678;2023-09-08T06:41:53;20.10;99.90
9881;DHT22;4979;51.014;6.678;2023-09-08T06:44:22;20.20;99.90
9881;DHT22;4979;51.014;6.678;2023-09-08T06:46:47;20.30;99.90
9881;DHT22;4979;51.014;6.678;2023-09-08T06:49:13;20.40;99.90
9881;DHT22;4979;51.014;6.678;2023-09-08T06:51:39;20.40;99.90
9881;DHT22;4979;51.014;6.678;2023-09-08T06:54:04;20.50;99.90
9881;DHT22;4979;51.014;6.678;2023-09-08T06:56:30;20.60;99.90
9881;DHT22;4979;51.014;6.678;2023-09-08T06:58:56;20.70;99.90
9881;DHT22;4979;51.014;6.678;2023-09-08T07:01:23;20.70;99.90
9881;DHT22;4979;51.014;6.678;2023-09-08T07:03:49;20.80;99.90
9881;DHT22;4979;51.014;6.678;2023-09-08T07:06:15;21.00;99.90
9881;DHT22;4979;51.014;6.678;2023-09-08T07:08:40;21.00;99.90
9881;DHT22;4979;51.014;6.678;2023-09-08T07:11:06;21.20;99.90
9881;DHT22;4979;51.014;6.678;2023-09-08T07:13:32;21.20;99.90
9881;DHT22;4979;51.014;6.678;2023-09-08T07:15:57;21.30;99.90
9881;DHT22;4979;51.014;6.678;2023-09-08T07:18:23;21.40;99.90
9881;DHT22;4979;51.014;6.678;2023-09-08T07:20:48;21.40;99.90
9881;DHT22;4979;51.014;6.678;2023-09-08T07:23:16;21.60;99.90
9881;DHT22;4979;51.014;6.678;2023-09-08T07:25:48;21.80;99.90
9881;DHT22;4979;51.014;6.678;2023-09-08T07:28:15;21.80;99.90
9881;DHT22;4979;51.014;6.678;2023-09-08T07:30:41;21.80;99.90
9881;DHT22;4979;51.014;6.678;2023-09-08T07:35:32;22.00;99.90
9881;DHT22;4979;51.014;6.678;2023-09-08T07:37:58;22.00;99.90
9881;DHT22;4979;51.014;6.678;2023-09-08T07:40:23;22.10;99.90
9881;DHT22;4979;51.014;6.678;2023-09-08T07:45:15;22.20;99.90
9881;DHT22;4979;51.014;6.678;2023-09-08T07:47:41;22.30;99.90
9881;DHT22;4979;51.014;6.678;2023-09-08T07:50:24;22.50;99.90
9881;DHT22;4979;51.014;6.678;2023-09-08T07:52:52;22.60;99.90
9881;DHT22;4979;51.014;6.678;2023-09-08T07:55:18;22.70;99.90
9881;DHT22;4979;51.014;6.678;2023-09-08T07:57:45;22.80;99.90
9881;DHT22;4979;51.014;6.678;2023-09-08T08:00:14;22.80;99.90
9881;DHT22;4979;51.014;6.678;2023-09-08T08:02:43;22.90;99.90
9881;DHT22;4979;51.014;6.678;2023-09-08T08:05:11;23.00;99.90
9881;DHT22;4979;51.014;6.678;2023-09-08T08:07:38;23.20;99.90
9881;DHT22;4979;51.014;6.678;2023-09-08T08:10:05;23.30;99.90
9881;DHT22;4979;51.014;6.678;2023-09-08T08:12:30;23.40;99.90
9881;DHT22;4979;51.014;6.678;2023-09-08T08:19:50;23.50;99.90
9881;DHT22;4979;51.014;6.678;2023-09-08T08:22:16;23.70;99.90
9881;DHT22;4979;51.014;6.678;2023-09-08T08:24:42;23.80;99.90
9881;DHT22;4979;51.014;6.678;2023-09-08T08:31:59;23.90;99.90
9881;DHT22;4979;51.014;6.678;2023-09-08T08:36:51;24.20;99.90
9881;DHT22;4979;51.014;6.678;2023-09-08T08:39:16;24.30;99.90
9881;DHT22;4979;51.014;6.678;2023-09-08T08:41:43;24.50;99.90
9881;DHT22;4979;51.014;6.678;2023-09-08T08:44:09;24.50;99.90
9881;DHT22;4979;51.014;6.678;2023-09-08T08:46:36;24.70;99.90
9881;DHT22;4979;51.014;6.678;2023-09-08T08:49:03;24.80;99.90
9881;DHT22;4979;51.014;6.678;2023-09-08T08:51:31;24.90;99.90
9881;DHT22;4979;51.014;6.678;2023-09-08T08:53:57;25.00;99.90
9881;DHT22;4979;51.014;6.678;2023-09-08T08:56:23;25.10;99.90
9881;DHT22;4979;51.014;6.678;2023-09-08T08:58:49;25.00;99.90
9881;DHT22;4979;51.014;6.678;2023-09-08T09:01:18;25.20;99.90
9881;DHT22;4979;51.014;6.678;2023-09-08T09:03:49;25.20;99.90
9881;DHT22;4979;51.014;6.678;2023-09-08T09:06:15;25.20;99.90
9881;DHT22;4979;51.014;6.678;2023-09-08T09:08:43;25.40;99.90
9881;DHT22;4979;51.014;6.678;2023-09-08T09:11:09;25.50;99.90
9881;DHT22;4979;51.014;6.678;2023-09-08T09:13:35;25.60;99.90
9881;DHT22;4979;51.014;6.678;2023-09-08T09:16:01;25.60;99.90
9881;DHT22;4979;51.014;6.678;2023-09-08T09:18:29;25.70;99.90
9881;DHT22;4979;51.014;6.678;2023-09-08T09:20:58;25.80;99.90
9881;DHT22;4979;51.014;6.678;2023-09-08T09:23:31;25.90;99.90
9881;DHT22;4979;51.014;6.678;2023-09-08T09:25:59;26.00;99.90
9881;DHT22;4979;51.014;6.678;2023-09-08T09:28:25;26.10;99.90
9881;DHT22;4979;51.014;6.678;2023-09-08T09:30:52;26.20;99.90
9881;DHT22;4979;51.014;6.678;2023-09-08T09:33:20;26.30;99.90
9881;DHT22;4979;51.014;6.678;2023-09-08T09:35:50;26.40;99.90
9881;DHT22;4979;51.014;6.678;2023-09-08T09:38:17;26.50;99.90
9881;DHT22;4979;51.014;6.678;2023-09-08T09:40:44;26.60;99.90
9881;DHT22;4979;51.014;6.678;2023-09-08T09:43:11;26.60;99.90
9881;DHT22;4979;51.014;6.678;2023-09-08T09:45:38;26.50;99.90
9881;DHT22;4979;51.014;6.678;2023-09-08T09:48:04;26.80;99.90
9881;DHT22;4979;51.014;6.678;2023-09-08T09:50:41;26.90;99.90
9881;DHT22;4979;51.014;6.678;2023-09-08T09:53:17;26.90;99.90
9881;DHT22;4979;51.014;6.678;2023-09-08T09:55:45;27.00;99.90
9881;DHT22;4979;51.014;6.678;2023-09-08T09:58:11;27.00;99.90
9881;DHT22;4979;51.014;6.678;2023-09-08T10:00:38;27.00;99.90
9881;DHT22;4979;51.014;6.678;2023-09-08T10:03:06;27.20;99.90
9881;DHT22;4979;51.014;6.678;2023-09-08T10:05:32;27.10;99.90
9881;DHT22;4979;51.014;6.678;2023-09-08T10:07:59;27.20;99.90
9881;DHT22;4979;51.014;6.678;2023-09-08T10:10:26;27.30;99.90
9881;DHT22;4979;51.014;6.678;2023-09-08T10:12:59;27.60;99.90
9881;DHT22;4979;51.014;6.678;2023-09-08T10:15:26;27.70;99.90
9881;DHT22;4979;51.014;6.678;2023-09-08T10:17:54;27.70;99.90
9881;DHT22;4979;51.014;6.678;2023-09-08T10:20:27;27.70;99.90
9881;DHT22;4979;51.014;6.678;2023-09-08T10:23:07;27.90;99.90
9881;DHT22;4979;51.014;6.678;2023-09-08T10:25:37;28.20;99.90
9881;DHT22;4979;51.014;6.678;2023-09-08T10:28:05;28.10;99.90
9881;DHT22;4979;51.014;6.678;2023-09-08T10:30:32;28.10;99.90
9881;DHT22;4979;51.014;6.678;2023-09-08T10:32:58;28.20;99.90
9881;DHT22;4979;51.014;6.678;2023-09-08T10:35:24;28.40;99.90
9881;DHT22;4979;51.014;6.678;2023-09-08T10:37:50;28.50;99.90
9881;DHT22;4979;51.014;6.678;2023-09-08T10:40:23;28.40;99.90
9881;DHT22;4979;51.014;6.678;2023-09-08T10:45:19;28.60;99.90
9881;DHT22;4979;51.014;6.678;2023-09-08T10:50:26;28.60;99.90
9881;DHT22;4979;51.014;6.678;2023-09-08T10:53:13;28.80;99.90
9881;DHT22;4979;51.014;6.678;2023-09-08T10:55:46;28.80;99.90
9881;DHT22;4979;51.014;6.678;2023-09-08T10:58:38;28.90;99.90
9881;DHT22;4979;51.014;6.678;2023-09-08T11:01:16;28.80;99.90
9881;DHT22;4979;51.014;6.678;2023-09-08T11:03:42;28.80;99.90
9881;DHT22;4979;51.014;6.678;2023-09-08T11:06:09;29.20;99.90
9881;DHT22;4979;51.014;6.678;2023-09-08T11:08:38;29.20;99.90
9881;DHT22;4979;51.014;6.678;2023-09-08T11:11:04;29.10;99.90
9881;DHT22;4979;51.014;6.678;2023-09-08T11:13:30;29.20;99.90
9881;DHT22;4979;51.014;6.678;2023-09-08T11:15:56;29.20;99.90
9881;DHT22;4979;51.014;6.678;2023-09-08T11:18:28;29.20;99.90
9881;DHT22;4979;51.014;6.678;2023-09-08T11:20:55;29.60;99.90
9881;DHT22;4979;51.014;6.678;2023-09-08T11:23:21;29.70;99.90
9881;DHT22;4979;51.014;6.678;2023-09-08T11:25:47;29.80;99.90
9881;DHT22;4979;51.014;6.678;2023-09-08T11:28:14;29.70;99.90
9881;DHT22;4979;51.014;6.678;2023-09-08T11:30:39;29.70;99.90
9881;DHT22;4979;51.014;6.678;2023-09-08T11:33:14;29.80;99.90
9881;DHT22;4979;51.014;6.678;2023-09-08T11:38:10;29.90;99.90
9881;DHT22;4979;51.014;6.678;2023-09-08T11:40:36;29.90;99.90
9881;DHT22;4979;51.014;6.678;2023-09-08T11:43:03;29.90;99.90
9881;DHT22;4979;51.014;6.678;2023-09-08T11:45:30;30.00;99.90
9881;DHT22;4979;51.014;6.678;2023-09-08T11:47:57;30.00;99.90
9881;DHT22;4979;51.014;6.678;2023-09-08T11:50:25;30.00;99.90
9881;DHT22;4979;51.014;6.678;2023-09-08T11:52:53;30.20;99.90
9881;DHT22;4979;51.014;6.678;2023-09-08T11:55:21;30.20;99.90
9881;DHT22;4979;51.014;6.678;2023-09-08T11:57:52;30.20;99.90
9881;DHT22;4979;51.014;6.678;2023-09-08T12:00:20;30.30;99.90
9881;DHT22;4979;51.014;6.678;2023-09-08T12:02:48;30.30;99.90
9881;DHT22;4979;51.014;6.678;2023-09-08T12:07:47;30.30;99.90
9881;DHT22;4979;51.014;6.678;2023-09-08T12:10:13;30.50;99.90
9881;DHT22;4979;51.014;6.678;2023-09-08T12:12:50;30.50;99.90
9881;DHT22;4979;51.014;6.678;2023-09-08T12:15:30;30.40;99.90
9881;DHT22;4979;51.014;6.678;2023-09-08T12:17:57;30.50;99.90
9881;DHT22;4979;51.014;6.678;2023-09-08T12:20:23;30.40;99.90
9881;DHT22;4979;51.014;6.678;2023-09-08T12:22:50;30.60;99.90
9881;DHT22;4979;51.014;6.678;2023-09-08T12:25:16;30.50;99.90
9881;DHT22;4979;51.014;6.678;2023-09-08T12:27:42;30.70;99.90
9881;DHT22;4979;51.014;6.678;2023-09-08T12:30:08;30.80;99.90
9881;DHT22;4979;51.014;6.678;2023-09-08T12:32:35;30.70;99.90
9881;DHT22;4979;51.014;6.678;2023-09-08T12:35:03;30.80;99.90
9881;DHT22;4979;51.014;6.678;2023-09-08T12:37:29;30.90;99.90
9881;DHT22;4979;51.014;6.678;2023-09-08T12:39:56;30.90;99.90
9881;DHT22;4979;51.014;6.678;2023-09-08T12:42:22;30.90;99.90
9881;DHT22;4979;51.014;6.678;2023-09-08T12:44:51;31.00;99.90
9881;DHT22;4979;51.014;6.678;2023-09-08T12:47:16;31.00;99.90
9881;DHT22;4979;51.014;6.678;2023-09-08T12:54:35;31.00;99.90
9881;DHT22;4979;51.014;6.678;2023-09-08T12:57:01;31.00;99.90
9881;DHT22;4979;51.014;6.678;2023-09-08T12:59:27;31.00;99.90
9881;DHT22;4979;51.014;6.678;2023-09-08T13:01:52;31.10;99.70
9881;DHT22;4979;51.014;6.678;2023-09-08T13:04:18;31.20;99.90
9881;DHT22;4979;51.014;6.678;2023-09-08T13:06:44;31.00;99.80
9881;DHT22;4979;51.014;6.678;2023-09-08T13:09:10;31.10;99.90
9881;DHT22;4979;51.014;6.678;2023-09-08T13:11:36;31.20;99.90
9881;DHT22;4979;51.014;6.678;2023-09-08T13:14:02;31.40;99.90
9881;DHT22;4979;51.014;6.678;2023-09-08T13:16:27;31.40;99.90
9881;DHT22;4979;51.014;6.678;2023-09-08T13:18:53;31.60;99.90
9881;DHT22;4979;51.014;6.678;2023-09-08T13:21:18;31.60;99.30
9881;DHT22;4979;51.014;6.678;2023-09-08T13:23:44;31.60;98.50
9881;DHT22;4979;51.014;6.678;2023-09-08T13:26:09;31.50;96.90
9881;DHT22;4979;51.014;6.678;2023-09-08T13:28:35;31.40;97.60
9881;DHT22;4979;51.014;6.678;2023-09-08T13:31:01;31.50;97.70
9881;DHT22;4979;51.014;6.678;2023-09-08T13:33:26;31.70;98.00
9881;DHT22;4979;51.014;6.678;2023-09-08T13:38:18;31.60;97.80
9881;DHT22;4979;51.014;6.678;2023-09-08T13:40:43;31.50;98.00
9881;DHT22;4979;51.014;6.678;2023-09-08T13:50:31;31.40;97.50
9881;DHT22;4979;51.014;6.678;2023-09-08T13:52:57;31.60;99.50
9881;DHT22;4979;51.014;6.678;2023-09-08T13:55:23;31.40;98.60
9881;DHT22;4979;51.014;6.678;2023-09-08T13:57:50;31.40;97.00
9881;DHT22;4979;51.014;6.678;2023-09-08T14:00:18;31.50;97.50
9881;DHT22;4979;51.014;6.678;2023-09-08T14:02:44;31.50;98.10
9881;DHT22;4979;51.014;6.678;2023-09-08T14:05:09;31.60;98.60
9881;DHT22;4979;51.014;6.678;2023-09-08T14:07:35;31.70;97.60
9881;DHT22;4979;51.014;6.678;2023-09-08T14:10:01;31.50;98.00
9881;DHT22;4979;51.014;6.678;2023-09-08T14:14:53;31.60;96.60
9881;DHT22;4979;51.014;6.678;2023-09-08T14:19:46;31.70;96.80
9881;DHT22;4979;51.014;6.678;2023-09-08T14:24:37;31.60;97.10
9881;DHT22;4979;51.014;6.678;2023-09-08T14:27:03;31.70;96.50
9881;DHT22;4979;51.014;6.678;2023-09-08T14:29:29;31.60;96.60
9881;DHT22;4979;51.014;6.678;2023-09-08T14:31:54;31.60;96.50
9881;DHT22;4979;51.014;6.678;2023-09-08T14:34:20;31.50;96.80
9881;DHT22;4979;51.014;6.678;2023-09-08T14:36:45;31.50;97.40
9881;DHT22;4979;51.014;6.678;2023-09-08T14:41:37;31.60;97.50
9881;DHT22;4979;51.014;6.678;2023-09-08T14:44:03;31.60;96.10
9881;DHT22;4979;51.014;6.678;2023-09-08T14:46:28;31.50;97.10
9881;DHT22;4979;51.014;6.678;2023-09-08T14:48:54;31.60;96.40
9881;DHT22;4979;51.014;6.678;2023-09-08T14:51:20;31.40;96.00
9881;DHT22;4979;51.014;6.678;2023-09-08T14:53:46;31.60;97.10
9881;DHT22;4979;51.014;6.678;2023-09-08T14:56:11;31.40;95.70
9881;DHT22;4979;51.014;6.678;2023-09-08T14:58:37;31.40;95.70
9881;DHT22;4979;51.014;6.678;2023-09-08T15:01:04;31.30;96.40
9881;DHT22;4979;51.014;6.678;2023-09-08T15:03:35;31.30;95.90
9881;DHT22;4979;51.014;6.678;2023-09-08T15:06:01;31.40;96.30
9881;DHT22;4979;51.014;6.678;2023-09-08T15:08:28;31.50;96.00
9881;DHT22;4979;51.014;6.678;2023-09-08T15:10:54;31.50;96.00
9881;DHT22;4979;51.014;6.678;2023-09-08T15:13:20;31.50;96.40
9881;DHT22;4979;51.014;6.678;2023-09-08T15:15:45;31.50;96.20
9881;DHT22;4979;51.014;6.678;2023-09-08T15:18:11;31.40;96.00
9881;DHT22;4979;51.014;6.678;2023-09-08T15:20:37;31.40;96.50
9881;DHT22;4979;51.014;6.678;2023-09-08T15:23:03;31.40;96.50
9881;DHT22;4979;51.014;6.678;2023-09-08T15:25:29;31.30;96.20
9881;DHT22;4979;51.014;6.678;2023-09-08T15:27:54;31.40;96.60
9881;DHT22;4979;51.014;6.678;2023-09-08T15:30:20;31.30;95.90
9881;DHT22;4979;51.014;6.678;2023-09-08T15:32:45;31.40;96.20
9881;DHT22;4979;51.014;6.678;2023-09-08T15:35:11;31.20;95.00
9881;DHT22;4979;51.014;6.678;2023-09-08T15:40:03;31.10;95.40
9881;DHT22;4979;51.014;6.678;2023-09-08T15:44:55;31.10;96.40
9881;DHT22;4979;51.014;6.678;2023-09-08T15:54:40;31.10;96.30
9881;DHT22;4979;51.014;6.678;2023-09-08T15:57:05;31.00;96.60
9881;DHT22;4979;51.014;6.678;2023-09-08T15:59:33;31.00;96.00
9881;DHT22;4979;51.014;6.678;2023-09-08T16:01:58;31.00;96.60
9881;DHT22;4979;51.014;6.678;2023-09-08T16:04:24;31.00;96.60
9881;DHT22;4979;51.014;6.678;2023-09-08T16:06:49;30.90;96.60
9881;DHT22;4979;51.014;6.678;2023-09-08T16:09:15;30.90;96.40
9881;DHT22;4979;51.014;6.678;2023-09-08T16:11:41;30.80;96.40
9881;DHT22;4979;51.014;6.678;2023-09-08T16:14:06;30.80;96.20
9881;DHT22;4979;51.014;6.678;2023-09-08T16:16:32;30.70;96.90
9881;DHT22;4979;51.014;6.678;2023-09-08T16:18:57;30.70;97.70
9881;DHT22;4979;51.014;6.678;2023-09-08T16:21:23;30.70;97.80
9881;DHT22;4979;51.014;6.678;2023-09-08T16:26:14;30.50;98.50
9881;DHT22;4979;51.014;6.678;2023-09-08T16:31:07;30.50;99.00
9881;DHT22;4979;51.014;6.678;2023-09-08T16:33:33;30.40;98.90
9881;DHT22;4979;51.014;6.678;2023-09-08T16:35:59;30.40;98.50
9881;DHT22;4979;51.014;6.678;2023-09-08T16:38:25;30.30;98.70
9881;DHT22;4979;51.014;6.678;2023-09-08T16:40:50;30.30;98.40
9881;DHT22;4979;51.014;6.678;2023-09-08T16:43:16;30.20;98.60
9881;DHT22;4979;51.014;6.678;2023-09-08T16:48:08;30.10;99.90
9881;DHT22;4979;51.014;6.678;2023-09-08T16:50:33;30.00;99.90
9881;DHT22;4979;51.014;6.678;2023-09-08T16:52:59;30.00;99.90
9881;DHT22;4979;51.014;6.678;2023-09-08T16:55:25;30.00;99.90
9881;DHT22;4979;51.014;6.678;2023-09-08T16:57:50;30.00;99.90
9881;DHT22;4979;51.014;6.678;2023-09-08T17:02:42;29.90;99.90
9881;DHT22;4979;51.014;6.678;2023-09-08T17:05:08;30.00;99.90
9881;DHT22;4979;51.014;6.678;2023-09-08T17:07:34;30.00;99.90
9881;DHT22;4979;51.014;6.678;2023-09-08T17:10:01;30.10;99.90
9881;DHT22;4979;51.014;6.678;2023-09-08T17:12:27;30.10;99.90
9881;DHT22;4979;51.014;6.678;2023-09-08T17:14:53;30.10;99.90
9881;DHT22;4979;51.014;6.678;2023-09-08T17:17:19;30.00;99.90
9881;DHT22;4979;51.014;6.678;2023-09-08T17:19:45;29.90;99.90
9881;DHT22;4979;51.014;6.678;2023-09-08T17:22:10;29.90;99.90
9881;DHT22;4979;51.014;6.678;2023-09-08T17:24:36;29.80;99.90
9881;DHT22;4979;51.014;6.678;2023-09-08T17:27:01;29.60;99.90
9881;DHT22;4979;51.014;6.678;2023-09-08T17:29:27;29.40;99.90
9881;DHT22;4979;51.014;6.678;2023-09-08T17:31:54;29.20;99.90
9881;DHT22;4979;51.014;6.678;2023-09-08T17:34:20;29.10;99.90
9881;DHT22;4979;51.014;6.678;2023-09-08T17:36:47;29.00;99.90
9881;DHT22;4979;51.014;6.678;2023-09-08T17:39:13;28.80;99.90
9881;DHT22;4979;51.014;6.678;2023-09-08T17:41:40;28.70;99.90
9881;DHT22;4979;51.014;6.678;2023-09-08T17:44:06;28.60;99.90
9881;DHT22;4979;51.014;6.678;2023-09-08T17:48:58;28.30;99.90
9881;DHT22;4979;51.014;6.678;2023-09-08T17:53:50;28.00;99.90